Time;durP1;ratioP1;P1;durP2;ratioP2;P2;SDS_P1;SDS_P2;PMS_P1;PMS_P2;Temp;Humidity;BMP_temperature;BMP_pressure;BME280_temperature;BME280_humidity;BME280_pressure;Samples;Min_cycle;Max_cycle;Signal;HPM_P1;HPM_P2
2022/01/09 09:44:18;;;;;;;23.73;4.82;;;;;;;;;;5072999;27;100067;-63
2022/01/09 09:46:49;;;;;;;13.02;4.97;;;;;;;;;;5022301;27;99965;-64
2022/01/09 09:49:16;;;;;;;13.90;4.93;;;;;;;;;;4836452;27;101274;-63
2022/01/09 09:51:42;;;;;;;12.32;4.97;;;;;;;;;;4930475;28;102653;-63
2022/01/09 09:54:09;;;;;;;8.50;4.20;;;;;;;;;;4990768;28;100259;-60
2022/01/09 09:58:18;;;;;;;12.05;4.68;;;;;;;;;;4991423;27;100405;-62
2022/01/09 10:00:55;;;;;;;11.25;4.65;;;;;;;;;;5043211;27;99977;-62
2022/01/09 10:03:30;;;;;;;16.08;4.68;;;;;;;;;;5036905;27;100519;-66
2022/01/09 10:05:58;;;;;;;16.02;5.20;;;;;;;;;;5049505;27;100681;-65
2022/01/09 10:08:45;;;;;;;12.57;4.85;;;;;;;;;;5022554;27;100052;-62
2022/01/09 10:11:15;;;;;;;12.27;4.50;;;;;;;;;;4992102;27;100448;-66
2022/01/09 10:13:42;;;;;;;10.35;5.25;;;;;;;;;;5032954;27;103342;-62
2022/01/09 10:16:09;;;;;;;31.02;5.75;;;;;;;;;;5050660;27;103322;-66
2022/01/09 10:18:42;;;;;;;10.40;4.43;;;;;;;;;;5014006;27;100330;-64
2022/01/09 10:21:14;;;;;;;10.93;3.93;;;;;;;;;;5048326;27;100356;-64
2022/01/09 10:24:00;;;;;;;11.13;4.63;;;;;;;;;;5049553;27;101370;-64
2022/01/09 10:26:28;;;;;;;7.43;4.25;;;;;;;;;;5042536;27;100756;-62
2022/01/09 10:28:55;;;;;;;8.48;4.03;;;;;;;;;;5065717;27;102705;-64
2022/01/09 10:31:22;;;;;;;12.13;5.10;;;;;;;;;;5047613;27;100795;-63
2022/01/09 10:34:06;;;;;;;19.60;5.10;;;;;;;;;;5050093;27;101476;-62
2022/01/09 10:36:36;;;;;;;14.45;4.70;;;;;;;;;;5047679;27;100565;-63
2022/01/09 10:39:11;;;;;;;9.95;4.53;;;;;;;;;;5049646;27;100125;-63
2022/01/09 10:41:58;;;;;;;10.35;4.45;;;;;;;;;;5046179;27;100027;-67
2022/01/09 10:44:27;;;;;;;14.82;4.55;;;;;;;;;;5065072;27;100504;-62
2022/01/09 10:47:05;;;;;;;14.68;4.38;;;;;;;;;;5050117;27;100844;-62
2022/01/09 10:49:35;;;;;;;10.40;4.05;;;;;;;;;;5049819;27;100461;-67
2022/01/09 10:52:22;;;;;;;16.20;4.47;;;;;;;;;;5064151;27;100893;-63
2022/01/09 10:54:50;;;;;;;14.75;4.50;;;;;;;;;;4982841;27;101313;-66
2022/01/09 10:57:21;;;;;;;9.73;4.40;;;;;;;;;;5041015;27;100658;-64
2022/01/09 10:59:48;;;;;;;10.30;4.07;;;;;;;;;;5049493;27;100069;-64
2022/01/09 11:02:15;;;;;;;11.13;4.72;;;;;;;;;;5073370;27;100135;-64
2022/01/09 11:04:43;;;;;;;8.27;4.40;;;;;;;;;;5050142;27;100197;-64
2022/01/09 11:07:10;;;;;;;10.60;5.18;;;;;;;;;;5049617;27;100863;-65
2022/01/09 11:09:44;;;;;;;11.77;4.60;;;;;;;;;;5051421;27;100194;-65
2022/01/09 11:12:16;;;;;;;13.45;4.68;;;;;;;;;;5068209;27;99871;-65
2022/01/09 11:14:43;;;;;;;13.90;5.47;;;;;;;;;;5034612;28;100319;-65
2022/01/09 11:17:10;;;;;;;11.25;5.10;;;;;;;;;;5034208;28;100567;-65
2022/01/09 11:19:37;;;;;;;9.73;4.75;;;;;;;;;;5034623;28;100082;-64
2022/01/09 11:22:06;;;;;;;11.07;4.80;;;;;;;;;;5068812;27;100176;-68
2022/01/09 11:24:42;;;;;;;13.30;5.63;;;;;;;;;;5034900;28;100318;-66
2022/01/09 11:27:19;;;;;;;11.25;5.10;;;;;;;;;;5034736;28;100806;-67
2022/01/09 11:30:21;;;;;;;11.30;5.10;;;;;;;;;;5035367;27;100125;-70
2022/01/09 11:33:06;;;;;;;9.90;5.28;;;;;;;;;;5035819;28;100061;-69
2022/01/09 11:36:04;;;;;;;8.70;4.82;;;;;;;;;;5035750;28;100639;-68
2022/01/09 11:39:25;;;;;;;10.23;4.68;;;;;;;;;;5034473;27;100618;-70
2022/01/09 11:42:10;;;;;;;10.02;4.63;;;;;;;;;;4987932;28;100365;-70
2022/01/09 11:44:55;;;;;;;;;;;;;;;;;;5030325;28;100136;-69
2022/01/09 11:47:51;;;;;;;8.75;4.53;;;;;;;;;;5035484;28;100374;-69
2022/01/09 11:50:19;;;;;;;8.50;4.55;;;;;;;;;;5033399;28;100562;-69
2022/01/09 11:52:57;;;;;;;7.53;4.13;;;;;;;;;;5035887;28;100168;-69
2022/01/09 11:55:41;;;;;;;8.48;4.60;;;;;;;;;;5018820;28;100133;-69
2022/01/09 11:58:10;;;;;;;7.95;4.40;;;;;;;;;;5034700;28;100687;-67
2022/01/09 12:01:09;;;;;;;8.25;4.82;;;;;;;;;;5034817;27;101133;-69
2022/01/09 12:03:46;;;;;;;9.02;4.25;;;;;;;;;;5034592;27;100182;-68
2022/01/09 12:06:16;;;;;;;9.70;4.53;;;;;;;;;;5034822;28;100009;-69
2022/01/09 12:08:57;;;;;;;10.10;4.63;;;;;;;;;;5049019;27;103343;-67
2022/01/09 12:12:02;;;;;;;10.63;4.30;;;;;;;;;;5029871;28;101118;-66
2022/01/09 12:14:41;;;;;;;9.13;4.03;;;;;;;;;;5032142;27;100654;-67
2022/01/09 12:17:36;;;;;;;7.88;3.72;;;;;;;;;;5031265;28;100222;-66
2022/01/09 13:34:06;;;;;;;19.15;4.72;;;;;;;;;;5027091;27;1391014;-81
2022/01/09 13:36:37;;;;;;;8.40;2.83;;;;;;;;;;5052463;27;100220;-74
2022/01/09 13:39:09;;;;;;;6.45;2.88;;;;;;;;;;4966992;27;100772;-73
2022/01/09 13:41:58;;;;;;;8.50;2.58;;;;;;;;;;5000720;28;101608;-74
2022/01/09 13:44:54;;;;;;;7.05;2.25;;;;;;;;;;5030196;28;100013;-75
2022/01/09 13:47:25;;;;;;;7.15;2.42;;;;;;;;;;5020230;28;101597;-75
2022/01/09 13:49:54;;;;;;;8.07;2.50;;;;;;;;;;5028611;28;100183;-73
2022/01/09 13:52:28;;;;;;;9.27;2.58;;;;;;;;;;5029130;28;101809;-75
2022/01/09 13:54:59;;;;;;;8.13;2.90;;;;;;;;;;5011958;28;100124;-75
2022/01/09 13:57:27;;;;;;;7.20;2.20;;;;;;;;;;5020949;28;100253;-75
2022/01/09 14:00:04;;;;;;;7.70;2.75;;;;;;;;;;5025308;28;101435;-74
2022/01/09 14:02:43;;;;;;;9.13;2.85;;;;;;;;;;5013826;28;100890;-74
2022/01/09 14:05:47;;;;;;;8.05;2.75;;;;;;;;;;5009205;28;100321;-75
2022/01/09 14:08:35;;;;;;;6.55;2.88;;;;;;;;;;4982238;28;100544;-74
2022/01/09 14:11:06;;;;;;;5.55;2.88;;;;;;;;;;5003248;28;100537;-74
2022/01/09 14:13:37;;;;;;;8.40;3.17;;;;;;;;;;4997705;28;101407;-74
2022/01/09 14:16:33;;;;;;;9.77;2.72;;;;;;;;;;4998538;28;100431;-74
2022/01/09 14:19:07;;;;;;;7.00;2.70;;;;;;;;;;5015813;28;100349;-74
2022/01/09 14:21:57;;;;;;;6.55;2.78;;;;;;;;;;4960231;28;100397;-74
2022/01/09 14:24:54;;;;;;;8.65;2.95;;;;;;;;;;5008344;28;103313;-76
2022/01/09 14:27:39;;;;;;;8.50;2.75;;;;;;;;;;5010617;28;101628;-75
2022/01/09 14:30:27;;;;;;;6.00;2.47;;;;;;;;;;5011021;28;100218;-78
2022/01/09 14:33:15;;;;;;;6.53;2.83;;;;;;;;;;4995919;28;101633;-75
2022/01/09 14:36:10;;;;;;;7.15;3.03;;;;;;;;;;5023172;28;101233;-75
2022/01/09 14:38:57;;;;;;;6.25;2.38;;;;;;;;;;5025604;27;100233;-75
2022/01/09 14:42:06;;;;;;;6.63;3.05;;;;;;;;;;5026215;28;101062;-74
2022/01/09 14:45:07;;;;;;;8.43;3.15;;;;;;;;;;4950091;28;100663;-76
2022/01/09 14:48:10;;;;;;;8.52;2.60;;;;;;;;;;4860589;28;100721;-76
2022/01/09 14:50:45;;;;;;;11.20;3.95;;;;;;;;;;4874166;28;102231;-76
2022/01/09 14:53:15;;;;;;;8.60;4.45;;;;;;;;;;4873594;28;101081;-75
2022/01/09 14:56:02;;;;;;;8.48;3.67;;;;;;;;;;4872550;28;100401;-75
2022/01/09 14:58:29;;;;;;;14.52;4.15;;;;;;;;;;4932694;28;101181;-75
2022/01/09 15:01:00;;;;;;;7.55;3.20;;;;;;;;;;4970206;28;100231;-74
2022/01/09 15:03:32;;;;;;;6.25;2.80;;;;;;;;;;4946264;28;100462;-75
2022/01/09 15:05:59;;;;;;;7.85;3.28;;;;;;;;;;4782208;28;111130;-77
2022/01/09 15:09:25;;;;;;;9.15;3.15;;;;;;;;;;4891084;28;102022;-74
2022/01/09 15:12:37;;;;;;;7.00;2.60;;;;;;;;;;4933300;28;100260;-75
2022/01/09 15:15:10;;;;;;;8.65;3.38;;;;;;;;;;4964132;28;100139;-75
2022/01/09 15:18:13;;;;;;;10.35;3.38;;;;;;;;;;5013880;28;100338;-76
2022/01/09 15:20:52;;;;;;;7.75;3.42;;;;;;;;;;5013631;28;101110;-75
2022/01/09 15:23:26;;;;;;;6.90;2.75;;;;;;;;;;5011459;28;100148;-74
2022/01/09 15:25:54;;;;;;;6.13;2.70;;;;;;;;;;5009898;28;100075;-75
2022/01/09 15:28:32;;;;;;;7.60;3.00;;;;;;;;;;5014757;28;100527;-76
2022/01/09 15:31:00;;;;;;;12.32;3.17;;;;;;;;;;5014418;28;100541;-75
2022/01/09 15:33:31;;;;;;;9.15;3.33;;;;;;;;;;5013389;28;100106;-76
2022/01/09 15:35:57;;;;;;;7.50;2.75;;;;;;;;;;5015299;28;100101;-75
2022/01/09 15:38:24;;;;;;;8.85;2.88;;;;;;;;;;4802902;28;101988;-73
2022/01/09 15:41:00;;;;;;;7.10;2.92;;;;;;;;;;4903710;28;102074;-74
2022/01/09 15:43:33;;;;;;;7.20;2.45;;;;;;;;;;4951877;28;100398;-74
2022/01/09 15:46:11;;;;;;;5.93;2.30;;;;;;;;;;5012871;28;100192;-73
2022/01/09 15:48:38;;;;;;;5.60;2.15;;;;;;;;;;5010228;28;103497;-74
2022/01/09 15:51:36;;;;;;;6.93;2.38;;;;;;;;;;5001908;28;100692;-75
2022/01/09 15:54:23;;;;;;;6.38;2.45;;;;;;;;;;4918158;28;253164;-75
2022/01/09 15:56:53;;;;;;;7.15;2.47;;;;;;;;;;4995290;28;100174;-74
2022/01/09 15:59:26;;;;;;;6.38;2.35;;;;;;;;;;5013350;28;100220;-75
2022/01/09 16:02:03;;;;;;;5.60;2.22;;;;;;;;;;5011963;28;102343;-76
2022/01/09 16:04:31;;;;;;;4.70;2.22;;;;;;;;;;5012764;28;101364;-75
2022/01/09 16:07:11;;;;;;;6.93;2.63;;;;;;;;;;5014056;28;99963;-75
2022/01/09 16:09:49;;;;;;;7.15;2.67;;;;;;;;;;5012434;28;101269;-75
2022/01/09 16:12:23;;;;;;;8.02;2.97;;;;;;;;;;5011524;28;101364;-74
2022/01/09 16:15:05;;;;;;;10.20;2.70;;;;;;;;;;4998929;28;100420;-74
2022/01/09 16:17:44;;;;;;;7.05;3.08;;;;;;;;;;5012231;28;100207;-76
2022/01/09 16:20:22;;;;;;;7.57;2.95;;;;;;;;;;4994407;28;100255;-73
2022/01/09 16:23:04;;;;;;;8.32;3.40;;;;;;;;;;5006698;28;100958;-76
2022/01/09 16:25:40;;;;;;;8.05;3.38;;;;;;;;;;4991471;28;100254;-76
2022/01/09 16:28:06;;;;;;;8.13;3.45;;;;;;;;;;4951569;28;100358;-75
2022/01/09 16:30:37;;;;;;;9.70;3.10;;;;;;;;;;4936132;28;100376;-75
2022/01/09 16:33:08;;;;;;;7.20;3.42;;;;;;;;;;4918718;28;101830;-75
2022/01/09 16:35:40;;;;;;;9.23;3.43;;;;;;;;;;4930975;28;100157;-74
2022/01/09 16:38:10;;;;;;;9.75;3.40;;;;;;;;;;4816954;28;100371;-75
2022/01/09 16:40:36;;;;;;;6.90;3.13;;;;;;;;;;4906268;28;102109;-74
2022/01/09 16:45:23;;;;;;;7.28;3.45;;;;;;;;;;4905512;27;3134309;-74
2022/01/09 16:47:56;;;;;;;10.57;3.60;;;;;;;;;;5074968;27;100306;-73
2022/01/09 16:50:30;;;;;;;9.85;3.50;;;;;;;;;;5063920;27;100463;-74
2022/01/09 16:52:57;;;;;;;8.02;3.67;;;;;;;;;;5059931;27;103688;-75
2022/01/09 16:55:24;;;;;;;7.68;3.25;;;;;;;;;;5052198;27;100253;-74
2022/01/09 16:57:51;;;;;;;8.88;3.40;;;;;;;;;;5052942;27;100233;-75
2022/01/09 17:00:19;;;;;;;9.48;3.50;;;;;;;;;;5051487;27;100310;-74
2022/01/09 17:02:46;;;;;;;8.02;3.80;;;;;;;;;;5057346;27;100674;-74
2022/01/09 17:05:16;;;;;;;9.95;3.22;;;;;;;;;;5052648;27;100160;-75
2022/01/09 17:07:45;;;;;;;9.07;3.65;;;;;;;;;;5025508;27;100334;-75
2022/01/09 17:10:12;;;;;;;9.63;3.38;;;;;;;;;;5048498;27;100428;-75
2022/01/09 17:12:40;;;;;;;9.73;3.03;;;;;;;;;;5051713;27;102637;-74
2022/01/09 17:15:07;;;;;;;9.60;3.78;;;;;;;;;;5053004;27;100290;-75
2022/01/09 17:17:34;;;;;;;9.88;4.20;;;;;;;;;;5050295;27;100091;-75
2022/01/09 17:20:01;;;;;;;12.05;4.57;;;;;;;;;;5074033;27;100740;-74
2022/01/09 17:22:33;;;;;;;10.00;5.00;;;;;;;;;;5074560;27;100719;-74
2022/01/09 17:25:00;;;;;;;9.73;3.88;;;;;;;;;;5062654;27;100595;-74
2022/01/09 17:27:28;;;;;;;13.38;5.35;;;;;;;;;;5038732;27;100237;-75
2022/01/09 17:30:01;;;;;;;13.02;4.95;;;;;;;;;;5035059;27;100813;-75
2022/01/09 17:32:29;;;;;;;10.02;4.43;;;;;;;;;;5064238;27;100677;-76
2022/01/09 17:34:56;;;;;;;17.90;7.35;;;;;;;;;;5029958;27;100108;-75
2022/01/09 17:37:23;;;;;;;8.90;4.72;;;;;;;;;;5025476;27;100353;-74
2022/01/09 17:39:50;;;;;;;10.48;4.50;;;;;;;;;;5061790;27;100349;-75
2022/01/09 17:42:18;;;;;;;15.30;5.90;;;;;;;;;;5065004;27;101584;-73
2022/01/09 17:44:48;;;;;;;9.77;4.18;;;;;;;;;;5054749;27;100520;-74
2022/01/09 17:47:15;;;;;;;14.45;5.97;;;;;;;;;;5070230;27;100184;-74
2022/01/09 17:49:43;;;;;;;11.90;5.45;;;;;;;;;;5066577;27;100297;-75
2022/01/09 17:52:10;;;;;;;12.68;4.43;;;;;;;;;;5078576;27;103383;-74
2022/01/09 17:54:39;;;;;;;15.73;6.53;;;;;;;;;;5060489;27;100241;-74
2022/01/09 17:57:06;;;;;;;10.50;4.32;;;;;;;;;;5072024;27;100178;-74
2022/01/09 17:59:35;;;;;;;10.93;4.95;;;;;;;;;;5062578;27;104033;-75
2022/01/09 18:02:06;;;;;;;10.15;3.95;;;;;;;;;;5052733;27;100867;-74
2022/01/09 18:04:33;;;;;;;12.77;5.07;;;;;;;;;;5049267;27;100999;-73
2022/01/09 18:07:01;;;;;;;15.20;5.03;;;;;;;;;;5053513;27;100176;-74
2022/01/09 18:09:28;;;;;;;11.05;3.70;;;;;;;;;;5034972;27;100374;-75
2022/01/09 18:11:55;;;;;;;10.70;4.32;;;;;;;;;;5051576;27;101197;-76
2022/01/09 18:14:23;;;;;;;13.13;5.72;;;;;;;;;;5035198;27;100561;-75
2022/01/09 18:16:50;;;;;;;65.80;20.75;;;;;;;;;;5054142;27;101653;-75
2022/01/09 18:19:20;;;;;;;21.63;7.72;;;;;;;;;;5049901;27;100161;-75
2022/01/09 18:21:46;;;;;;;27.98;10.43;;;;;;;;;;5069274;27;100583;-74
2022/01/09 18:24:14;;;;;;;18.25;7.22;;;;;;;;;;5056724;27;100257;-74
2022/01/09 18:26:43;;;;;;;14.43;5.65;;;;;;;;;;5051337;27;100136;-74
2022/01/09 18:29:13;;;;;;;18.85;7.18;;;;;;;;;;5047012;27;100487;-75
2022/01/09 18:31:41;;;;;;;8.60;3.80;;;;;;;;;;5047059;27;101607;-74
2022/01/09 18:34:08;;;;;;;10.57;4.63;;;;;;;;;;5036303;27;100246;-73
2022/01/09 18:36:35;;;;;;;8.23;3.45;;;;;;;;;;5052872;27;100229;-75
2022/01/09 18:39:02;;;;;;;9.05;4.03;;;;;;;;;;5051296;27;100340;-74
2022/01/09 18:41:29;;;;;;;9.75;3.70;;;;;;;;;;5013563;27;101775;-74
2022/01/09 18:43:56;;;;;;;14.45;4.05;;;;;;;;;;5045970;27;102459;-74
2022/01/09 18:46:23;;;;;;;12.15;4.68;;;;;;;;;;5048696;27;101310;-74
2022/01/09 18:48:50;;;;;;;8.40;3.83;;;;;;;;;;5055314;27;101000;-74
2022/01/09 18:51:16;;;;;;;8.50;3.47;;;;;;;;;;5047644;27;100606;-74
2022/01/09 18:53:43;;;;;;;10.10;3.95;;;;;;;;;;5059893;27;100229;-74
2022/01/09 18:56:13;;;;;;;9.80;4.05;;;;;;;;;;5050492;27;100125;-74
2022/01/09 18:58:40;;;;;;;11.73;4.07;;;;;;;;;;5067401;27;103803;-74
2022/01/09 19:01:08;;;;;;;12.90;3.95;;;;;;;;;;5056300;27;100295;-74
2022/01/09 19:03:35;;;;;;;11.02;4.60;;;;;;;;;;5073022;27;100139;-74
2022/01/09 19:06:02;;;;;;;10.57;3.63;;;;;;;;;;5067881;27;100357;-75
2022/01/09 19:08:29;;;;;;;10.75;4.13;;;;;;;;;;5054091;27;101061;-75
2022/01/09 19:10:56;;;;;;;10.95;4.10;;;;;;;;;;5040308;27;100618;-74
2022/01/09 19:13:23;;;;;;;8.95;3.65;;;;;;;;;;5067903;27;100118;-74
2022/01/09 19:15:51;;;;;;;13.95;4.38;;;;;;;;;;5052850;27;100133;-76
2022/01/09 19:18:19;;;;;;;10.18;4.15;;;;;;;;;;5051949;27;100239;-75
2022/01/09 19:20:46;;;;;;;12.65;4.32;;;;;;;;;;5034883;27;102361;-74
2022/01/09 19:23:13;;;;;;;10.15;4.18;;;;;;;;;;5050889;27;100325;-75
2022/01/09 19:25:40;;;;;;;11.18;3.85;;;;;;;;;;5052739;27;100219;-74
2022/01/09 19:28:07;;;;;;;10.90;4.25;;;;;;;;;;5045673;27;101371;-75
2022/01/09 19:30:34;;;;;;;9.85;3.95;;;;;;;;;;5053349;27;100632;-75
2022/01/09 19:33:01;;;;;;;16.05;5.20;;;;;;;;;;5050179;27;100567;-74
2022/01/09 19:35:29;;;;;;;12.02;4.75;;;;;;;;;;5052135;27;100390;-74
2022/01/09 19:37:56;;;;;;;9.48;3.83;;;;;;;;;;5050497;27;100207;-74
2022/01/09 19:40:23;;;;;;;12.85;4.47;;;;;;;;;;5050839;27;100602;-74
2022/01/09 19:42:50;;;;;;;9.25;3.80;;;;;;;;;;5051331;27;100093;-76
2022/01/09 19:45:17;;;;;;;12.23;4.43;;;;;;;;;;5035160;27;100301;-76
2022/01/09 19:47:45;;;;;;;10.95;4.88;;;;;;;;;;5054572;27;100506;-75
2022/01/09 19:50:12;;;;;;;11.73;3.78;;;;;;;;;;5068701;27;100807;-75
2022/01/09 19:52:40;;;;;;;10.65;4.55;;;;;;;;;;5054807;27;100231;-75
2022/01/09 19:55:07;;;;;;;10.23;4.20;;;;;;;;;;5057278;27;100134;-74
2022/01/09 19:57:35;;;;;;;11.38;4.43;;;;;;;;;;5052026;27;100173;-74
2022/01/09 20:00:04;;;;;;;13.13;4.63;;;;;;;;;;5053382;27;100680;-75
2022/01/09 20:02:31;;;;;;;11.02;4.20;;;;;;;;;;5050823;27;102078;-76
2022/01/09 20:05:00;;;;;;;11.10;4.00;;;;;;;;;;5051835;27;101883;-76
2022/01/09 20:07:28;;;;;;;11.07;3.95;;;;;;;;;;5052903;27;100301;-75
2022/01/09 20:09:55;;;;;;;11.63;4.75;;;;;;;;;;5050426;27;101382;-75
2022/01/09 20:12:24;;;;;;;7.80;3.47;;;;;;;;;;5052663;27;100171;-75
2022/01/09 20:14:51;;;;;;;9.63;3.85;;;;;;;;;;5053767;27;100025;-75
2022/01/09 20:17:19;;;;;;;9.48;4.07;;;;;;;;;;5052178;27;100180;-75
2022/01/09 20:19:46;;;;;;;11.85;3.85;;;;;;;;;;5049136;27;103565;-75
2022/01/09 20:22:12;;;;;;;9.73;4.03;;;;;;;;;;5050163;27;100307;-75
2022/01/09 20:24:40;;;;;;;10.10;4.07;;;;;;;;;;5063507;27;100680;-76
2022/01/09 20:27:08;;;;;;;12.40;4.43;;;;;;;;;;5053972;27;100316;-74
2022/01/09 20:29:38;;;;;;;9.82;3.95;;;;;;;;;;5060135;27;100825;-74
2022/01/09 20:32:05;;;;;;;12.70;4.57;;;;;;;;;;5062117;27;100342;-74
2022/01/09 20:34:33;;;;;;;10.75;3.85;;;;;;;;;;5063227;27;100205;-74
2022/01/09 20:36:59;;;;;;;8.35;3.65;;;;;;;;;;5059229;27;100185;-74
2022/01/09 20:39:27;;;;;;;11.70;3.88;;;;;;;;;;5061766;27;103382;-74
2022/01/09 20:41:54;;;;;;;11.55;4.32;;;;;;;;;;5059845;27;105839;-75
2022/01/09 20:44:22;;;;;;;9.85;3.90;;;;;;;;;;5027890;27;100271;-75
2022/01/09 20:46:49;;;;;;;9.25;3.85;;;;;;;;;;5051157;27;100987;-75
2022/01/09 20:49:16;;;;;;;9.93;3.75;;;;;;;;;;5064367;27;100704;-75
2022/01/09 20:51:43;;;;;;;8.43;3.72;;;;;;;;;;5053458;27;100259;-75
2022/01/09 20:54:10;;;;;;;10.90;4.32;;;;;;;;;;5049099;27;100163;-75
2022/01/09 20:56:38;;;;;;;11.32;3.63;;;;;;;;;;5063394;27;102670;-75
2022/01/09 20:59:05;;;;;;;8.57;3.67;;;;;;;;;;5057876;27;101045;-74
2022/01/09 21:01:32;;;;;;;7.72;3.55;;;;;;;;;;5057762;27;102198;-74
2022/01/09 21:03:59;;;;;;;13.52;4.55;;;;;;;;;;5056602;27;100792;-75
2022/01/09 21:06:26;;;;;;;11.40;4.10;;;;;;;;;;5061931;27;100326;-74
2022/01/09 21:08:53;;;;;;;8.93;3.80;;;;;;;;;;5043170;27;100851;-75
2022/01/09 21:11:20;;;;;;;10.32;4.15;;;;;;;;;;5056021;27;101974;-75
2022/01/09 21:13:47;;;;;;;8.63;3.05;;;;;;;;;;5058992;27;100196;-75
2022/01/09 21:16:15;;;;;;;10.30;4.60;;;;;;;;;;5055868;27;100244;-75
2022/01/09 21:18:42;;;;;;;8.82;3.38;;;;;;;;;;5057152;27;100714;-74
2022/01/09 21:21:09;;;;;;;11.30;4.15;;;;;;;;;;5044656;27;103063;-75
2022/01/09 21:23:39;;;;;;;10.35;4.10;;;;;;;;;;5056745;27;102709;-75
2022/01/09 21:26:07;;;;;;;10.38;3.80;;;;;;;;;;5058978;27;100255;-74
2022/01/09 21:28:34;;;;;;;11.23;4.70;;;;;;;;;;5058591;27;101857;-74
2022/01/09 21:31:02;;;;;;;8.85;3.80;;;;;;;;;;5039889;27;100256;-74
2022/01/09 21:33:29;;;;;;;9.90;4.53;;;;;;;;;;5064556;27;100311;-75
2022/01/09 21:35:59;;;;;;;9.20;4.60;;;;;;;;;;5051180;27;103116;-74
2022/01/09 21:38:25;;;;;;;11.15;4.00;;;;;;;;;;5063536;27;100612;-74
2022/01/09 21:40:52;;;;;;;8.40;4.13;;;;;;;;;;5056212;27;102547;-74
2022/01/09 21:43:20;;;;;;;8.73;3.88;;;;;;;;;;5064118;27;101838;-75
2022/01/09 21:45:47;;;;;;;10.52;3.67;;;;;;;;;;5055986;27;100982;-75
2022/01/09 21:48:14;;;;;;;9.93;4.15;;;;;;;;;;5067019;27;100571;-75
2022/01/09 21:50:41;;;;;;;9.80;4.30;;;;;;;;;;5061110;27;100201;-75
2022/01/09 21:53:08;;;;;;;9.32;4.07;;;;;;;;;;5064020;27;100134;-75
2022/01/09 21:55:39;;;;;;;10.93;4.20;;;;;;;;;;5058583;27;101364;-75
2022/01/09 21:58:06;;;;;;;9.65;3.78;;;;;;;;;;5068629;27;101819;-74
2022/01/09 22:00:32;;;;;;;9.20;3.40;;;;;;;;;;5059825;27;100209;-75
2022/01/09 22:03:02;;;;;;;8.25;3.75;;;;;;;;;;5056742;27;100625;-75
2022/01/09 22:05:37;;;;;;;6.90;3.22;;;;;;;;;;5060464;27;100237;-74
2022/01/09 22:08:04;;;;;;;11.73;4.00;;;;;;;;;;5064347;27;100573;-74
2022/01/09 22:10:36;;;;;;;10.70;3.42;;;;;;;;;;5058176;27;100105;-74
2022/01/09 22:13:04;;;;;;;6.93;3.17;;;;;;;;;;5052592;27;101152;-74
2022/01/09 22:15:31;;;;;;;9.23;3.47;;;;;;;;;;5058240;27;100209;-75
2022/01/09 22:18:02;;;;;;;9.23;3.35;;;;;;;;;;5054891;27;102490;-74
2022/01/09 22:20:29;;;;;;;8.50;3.72;;;;;;;;;;5046966;27;100228;-74
2022/01/09 22:22:58;;;;;;;10.00;4.05;;;;;;;;;;5061102;27;100216;-74
2022/01/09 22:25:24;;;;;;;9.05;3.90;;;;;;;;;;5056220;27;101659;-75
2022/01/09 22:27:51;;;;;;;8.35;3.47;;;;;;;;;;4939695;27;100761;-74
2022/01/09 22:30:19;;;;;;;12.90;4.22;;;;;;;;;;5015323;27;100163;-75
2022/01/09 22:32:46;;;;;;;8.80;3.67;;;;;;;;;;5050836;27;100122;-74
2022/01/09 22:35:16;;;;;;;9.63;3.80;;;;;;;;;;5017441;27;100230;-74
2022/01/09 22:37:42;;;;;;;7.03;3.42;;;;;;;;;;5050453;27;100492;-75
2022/01/09 22:40:10;;;;;;;7.68;3.10;;;;;;;;;;5032276;27;100235;-75
2022/01/09 22:42:52;;;;;;;8.48;3.83;;;;;;;;;;5033209;27;100266;-75
2022/01/09 22:45:20;;;;;;;8.95;3.60;;;;;;;;;;5048206;27;100384;-75
2022/01/09 22:47:49;;;;;;;12.63;3.88;;;;;;;;;;5032277;27;101280;-75
2022/01/09 22:50:15;;;;;;;12.23;4.32;;;;;;;;;;5033885;27;100086;-75
2022/01/09 22:52:42;;;;;;;7.55;3.38;;;;;;;;;;5046756;27;100012;-75
2022/01/09 22:55:10;;;;;;;10.38;4.30;;;;;;;;;;5031947;27;100184;-76
2022/01/09 22:57:37;;;;;;;10.68;4.10;;;;;;;;;;5016123;27;100965;-76
2022/01/09 23:00:05;;;;;;;8.05;3.65;;;;;;;;;;5033411;27;100201;-76
2022/01/09 23:02:32;;;;;;;7.90;3.75;;;;;;;;;;5041605;27;100066;-76
2022/01/09 23:05:01;;;;;;;9.48;3.90;;;;;;;;;;5033102;27;103446;-75
2022/01/09 23:07:29;;;;;;;7.78;3.67;;;;;;;;;;5005509;27;100679;-74
2022/01/09 23:09:58;;;;;;;9.32;3.90;;;;;;;;;;5030329;28;100117;-76
2022/01/09 23:12:25;;;;;;;7.60;4.15;;;;;;;;;;5014276;28;100171;-75
2022/01/09 23:14:52;;;;;;;10.70;4.40;;;;;;;;;;5028960;27;100863;-76
2022/01/09 23:17:19;;;;;;;10.02;3.63;;;;;;;;;;5012624;28;100523;-76
2022/01/09 23:20:07;;;;;;;9.60;3.85;;;;;;;;;;5030304;28;100583;-76
2022/01/09 23:22:47;;;;;;;8.52;3.83;;;;;;;;;;4966855;28;100248;-75
2022/01/09 23:25:16;;;;;;;8.00;3.75;;;;;;;;;;4952050;28;100379;-76
2022/01/09 23:27:42;;;;;;;9.15;4.03;;;;;;;;;;4950902;28;102390;-77
2022/01/09 23:30:12;;;;;;;10.98;3.85;;;;;;;;;;4939152;28;100090;-76
2022/01/09 23:32:39;;;;;;;11.98;3.83;;;;;;;;;;4952800;28;100127;-76
2022/01/09 23:35:07;;;;;;;10.68;3.70;;;;;;;;;;4951807;28;100207;-76
2022/01/09 23:37:33;;;;;;;10.10;4.10;;;;;;;;;;4934841;28;103286;-76
2022/01/09 23:40:07;;;;;;;10.10;3.83;;;;;;;;;;4904309;28;100098;-76
2022/01/09 23:42:36;;;;;;;11.18;4.72;;;;;;;;;;4936576;28;100227;-76
2022/01/09 23:45:04;;;;;;;9.48;4.10;;;;;;;;;;4934610;28;103034;-77
2022/01/09 23:47:33;;;;;;;10.65;4.35;;;;;;;;;;4935360;28;101257;-77
2022/01/09 23:52:45;;;;;;;9.48;3.90;;;;;;;;;;4942155;28;100289;-76
2022/01/09 23:55:13;;;;;;;8.15;3.88;;;;;;;;;;5011127;28;100249;-75
2022/01/09 23:57:40;;;;;;;7.20;3.47;;;;;;;;;;5011144;28;100646;-76
